Wallingford, Kentucky
Current Conditions -  °F | °C
As of 7:55 PM on Sunday 23 Nov 2014 (Local Time) from KFGX Reporting Station
Light Rain Light Rain  
Wind Chill: 54°   Ceiling: 10000
Heat Index: 54°   Visibility: 10mi
Dew Point: 52°   Wind: 21mph
Humidity: 93%   Direction: 130°SE
Pressure: 29.47"   Gusts: 26mph
Location:  38.4°N, 83.61°W
Report Text: KFGX 240055Z AUTO 13018G23KT 10SM -RA SCT065 SCT080 OVC100 12/11 A2947 RMK AO2 T01230112
Loading
Personal Weather Stations






























Interactive Weather Map New forecast layout! Learn more

10-Day Weather Forecast

Advertisements
Track Severe Weather on mobile